createdAt,value
2023-03-13T00:01:20.636Z,62.54
2023-03-13T00:03:48.654Z,62.38
2023-03-13T00:06:20.881Z,62.67
2023-03-13T00:08:48.831Z,62.56
2023-03-13T00:11:17.405Z,62.62
2023-03-13T00:13:45.382Z,62.49
2023-03-13T00:16:19.474Z,62.43
2023-03-13T00:18:49.025Z,62.45
2023-03-13T00:21:17.444Z,62.50
2023-03-13T00:23:54.719Z,62.41
2023-03-13T00:26:23.754Z,62.66
2023-03-13T00:28:53.242Z,62.55
2023-03-13T00:31:26.336Z,62.72
2023-03-13T00:33:55.122Z,62.68
2023-03-13T00:36:24.492Z,62.54
2023-03-13T00:38:53.361Z,62.47
2023-03-13T00:41:28.468Z,62.41
2023-03-13T00:44:00.886Z,62.31
2023-03-13T00:46:30.218Z,62.28
2023-03-13T00:48:58.388Z,62.17
2023-03-13T00:51:27.465Z,61.96
2023-03-13T00:53:56.665Z,61.92
2023-03-13T00:56:24.605Z,61.62
2023-03-13T00:58:52.719Z,61.56
2023-03-13T01:01:25.676Z,61.33
2023-03-13T01:03:56.833Z,61.21
2023-03-13T01:06:26.054Z,61.15
2023-03-13T01:08:54.262Z,61.01
2023-03-13T01:11:23.330Z,60.74
2023-03-13T01:13:59.580Z,60.75
2023-03-13T01:16:28.219Z,60.80
2023-03-13T01:18:57.072Z,60.85
2023-03-13T01:21:25.490Z,60.69
2023-03-13T01:23:53.464Z,60.54
2023-03-13T01:26:22.152Z,60.36
2023-03-13T01:28:51.825Z,60.49
2023-03-13T01:31:21.000Z,60.51
2023-03-13T01:33:50.054Z,60.21
2023-03-13T01:36:21.199Z,60.12
2023-03-13T01:38:53.065Z,60.10
2023-03-13T01:41:30.574Z,59.98
2023-03-13T01:44:00.064Z,59.58
2023-03-13T01:46:33.992Z,59.61
2023-03-13T01:49:18.728Z,59.30
2023-03-13T01:51:58.965Z,59.26
2023-03-13T01:54:35.959Z,59.05
2023-03-13T01:57:19.705Z,59.01
2023-03-13T01:59:51.075Z,59.07
2023-03-13T02:02:19.576Z,58.97
2023-03-13T02:04:48.959Z,58.91
2023-03-13T02:07:17.959Z,58.50
2023-03-13T02:09:49.592Z,58.39
2023-03-13T02:12:33.028Z,58.50
2023-03-13T02:15:12.985Z,58.46
2023-03-13T02:17:41.429Z,58.22
2023-03-13T02:20:14.146Z,58.26
2023-03-13T02:22:45.246Z,58.16
2023-03-13T02:25:17.437Z,57.96
2023-03-13T02:27:45.527Z,57.93
2023-03-13T02:30:13.969Z,57.83
2023-03-13T02:32:42.752Z,57.78
2023-03-13T02:35:18.996Z,57.79
2023-03-13T02:37:48.392Z,57.64
2023-03-13T02:40:21.081Z,57.61
2023-03-13T02:42:49.465Z,57.63
2023-03-13T02:45:17.869Z,57.53
2023-03-13T02:47:45.985Z,57.39
2023-03-13T02:50:14.544Z,57.36
2023-03-13T02:52:46.410Z,57.42
2023-03-13T02:55:18.142Z,57.24
2023-03-13T02:57:47.013Z,57.06
2023-03-13T03:00:22.867Z,57.14
2023-03-13T03:02:51.100Z,57.19
2023-03-13T03:05:19.211Z,57.28
2023-03-13T03:07:47.411Z,57.28
2023-03-13T03:10:15.808Z,57.17
2023-03-13T03:12:46.004Z,57.26
2023-03-13T03:15:15.221Z,57.39
2023-03-13T03:17:46.074Z,57.27
2023-03-13T03:20:14.836Z,57.28
2023-03-13T03:22:44.930Z,57.45
2023-03-13T03:25:15.093Z,57.12
2023-03-13T03:27:43.253Z,57.36
2023-03-13T03:30:12.072Z,57.37
2023-03-13T03:32:40.867Z,57.38
2023-03-13T03:35:09.247Z,57.52
2023-03-13T03:37:37.646Z,57.40
2023-03-13T03:40:06.966Z,57.41
2023-03-13T03:42:35.009Z,57.55
2023-03-13T03:45:23.125Z,57.74
2023-03-13T03:47:55.858Z,57.76
2023-03-13T03:50:24.502Z,57.70
2023-03-13T03:52:56.954Z,57.63
2023-03-13T03:55:26.071Z,57.69
2023-03-13T03:57:54.456Z,57.77
2023-03-13T04:00:36.962Z,57.81
2023-03-13T04:03:05.196Z,57.96
2023-03-13T04:05:33.310Z,58.18
2023-03-13T04:08:01.841Z,58.20
2023-03-13T04:10:30.137Z,58.58
2023-03-13T04:12:58.600Z,58.80
2023-03-13T04:15:27.018Z,59.12
2023-03-13T04:17:55.220Z,59.16
2023-03-13T04:20:23.967Z,59.34
2023-03-13T04:22:52.589Z,59.61
2023-03-13T04:25:24.935Z,59.67
2023-03-13T04:27:54.445Z,59.95
2023-03-13T04:30:25.072Z,60.17
2023-03-13T04:33:25.313Z,60.31
2023-03-13T04:36:18.304Z,60.37
2023-03-13T04:39:05.146Z,60.50
2023-03-13T04:41:57.760Z,60.57
2023-03-13T04:44:49.033Z,60.77
2023-03-13T04:47:41.459Z,60.87
2023-03-13T04:50:30.019Z,61.01
2023-03-13T04:53:26.273Z,61.21
2023-03-13T04:56:26.807Z,61.19
2023-03-13T04:59:19.140Z,61.24
2023-03-13T05:02:15.451Z,61.16
2023-03-13T05:05:02.665Z,61.19
2023-03-13T05:07:51.794Z,61.24
2023-03-13T05:10:38.969Z,61.12
2023-03-13T05:13:25.448Z,61.25
2023-03-13T05:15:57.010Z,61.33
2023-03-13T05:18:34.836Z,61.34
2023-03-13T05:21:23.914Z,61.37
2023-03-13T05:24:19.478Z,61.41
2023-03-13T05:26:57.940Z,61.29
2023-03-13T05:29:37.265Z,61.40
2023-03-13T05:32:19.215Z,61.46
2023-03-13T05:38:20.504Z,61.56
2023-03-13T05:44:20.747Z,61.40
2023-03-13T05:47:15.356Z,61.27
2023-03-13T05:50:02.953Z,61.19
2023-03-13T05:52:55.129Z,60.84
2023-03-13T05:55:58.565Z,60.72
2023-03-13T05:58:46.658Z,60.33
2023-03-13T06:01:35.658Z,60.24
2023-03-13T06:04:12.075Z,59.57
2023-03-13T06:06:41.572Z,59.16
2023-03-13T06:09:20.491Z,59.22
2023-03-13T06:11:48.784Z,59.09
2023-03-13T06:14:17.086Z,58.50
2023-03-13T06:16:55.957Z,58.34
2023-03-13T06:19:26.888Z,57.72
2023-03-13T06:22:01.312Z,56.74
2023-03-13T06:24:29.910Z,56.76
2023-03-13T06:26:58.255Z,56.72
2023-03-13T06:29:26.328Z,56.72
2023-03-13T06:31:54.414Z,56.27
2023-03-13T06:34:22.701Z,55.72
2023-03-13T06:36:51.360Z,54.95
2023-03-13T06:39:19.577Z,52.92
2023-03-13T06:41:48.129Z,50.03
2023-03-13T06:44:16.629Z,46.93
2023-03-13T06:46:49.477Z,45.32
2023-03-13T06:49:18.051Z,44.10
2023-03-13T06:51:51.768Z,41.47
2023-03-13T06:54:20.468Z,41.20
2023-03-13T06:56:48.754Z,42.01
2023-03-13T06:59:18.145Z,41.95
2023-03-13T07:01:47.642Z,42.05
2023-03-13T07:04:20.796Z,41.85
2023-03-13T07:06:49.622Z,42.55
2023-03-13T07:09:20.117Z,42.57
2023-03-13T07:11:51.952Z,42.65
2023-03-13T07:14:22.242Z,42.45
2023-03-13T07:16:50.708Z,42.56
2023-03-13T07:19:22.077Z,42.03
2023-03-13T07:21:50.641Z,40.85
2023-03-13T07:24:19.908Z,40.57
2023-03-13T07:27:03.446Z,40.14
2023-03-13T07:29:34.847Z,39.64
2023-03-13T07:32:03.694Z,39.41
2023-03-13T07:34:32.781Z,40.22
2023-03-13T07:37:04.082Z,41.00
2023-03-13T07:39:33.384Z,41.69
2023-03-13T07:42:02.572Z,42.47
2023-03-13T07:44:31.422Z,43.10
2023-03-13T07:47:00.648Z,43.67
2023-03-13T07:49:29.441Z,43.82
2023-03-13T07:51:58.047Z,43.92
2023-03-13T07:54:34.815Z,44.06
2023-03-13T07:57:03.517Z,44.23
2023-03-13T07:59:31.733Z,45.16
2023-03-13T08:02:00.365Z,45.63
2023-03-13T08:04:28.598Z,46.10
2023-03-13T08:06:57.173Z,46.51
2023-03-13T08:09:26.010Z,46.19
2023-03-13T08:11:54.762Z,46.44
2023-03-13T08:14:23.592Z,46.92
2023-03-13T08:16:53.412Z,46.68
2023-03-13T08:19:21.680Z,46.48
2023-03-13T08:21:50.317Z,46.72
2023-03-13T08:24:20.890Z,47.09
2023-03-13T08:26:50.834Z,46.64
2023-03-13T08:29:19.938Z,46.75
2023-03-13T08:31:50.140Z,46.82
2023-03-13T08:34:19.178Z,46.69
2023-03-13T08:36:47.972Z,46.62
2023-03-13T08:39:18.893Z,45.89
2023-03-13T08:41:47.646Z,45.64
2023-03-13T08:44:21.309Z,45.60
2023-03-13T08:46:50.420Z,45.15
2023-03-13T08:49:21.745Z,45.08
2023-03-13T08:51:53.789Z,45.38
2023-03-13T08:54:23.930Z,45.43
2023-03-13T08:56:57.115Z,45.24
2023-03-13T08:59:33.247Z,45.14
2023-03-13T09:02:13.230Z,44.28
2023-03-13T09:04:49.547Z,44.31
2023-03-13T09:07:19.748Z,44.95
2023-03-13T09:09:52.662Z,45.65
2023-03-13T09:12:35.488Z,45.80
2023-03-13T09:15:11.749Z,45.54
2023-03-13T09:17:44.016Z,45.30
2023-03-13T09:20:13.298Z,45.34
2023-03-13T09:22:42.840Z,45.53
2023-03-13T09:25:11.215Z,45.59
2023-03-13T09:27:41.393Z,45.26
2023-03-13T09:30:10.296Z,45.26
2023-03-13T09:32:38.705Z,45.67
2023-03-13T09:35:07.617Z,46.08
2023-03-13T09:37:37.019Z,45.99
2023-03-13T09:40:05.894Z,45.74
2023-03-13T09:42:45.172Z,44.46
2023-03-13T09:45:31.485Z,44.21
2023-03-13T09:48:20.112Z,44.37
2023-03-13T09:50:54.097Z,43.74
2023-03-13T09:53:28.006Z,43.55
2023-03-13T09:55:56.054Z,43.18
2023-03-13T09:58:25.045Z,43.17
2023-03-13T10:01:03.874Z,43.44
2023-03-13T10:03:39.295Z,44.00
2023-03-13T10:06:20.139Z,44.50
2023-03-13T10:08:52.950Z,44.26
2023-03-13T10:11:29.886Z,44.36
2023-03-13T10:14:16.900Z,43.62
2023-03-13T10:16:47.476Z,42.79
2023-03-13T10:19:17.617Z,42.93
2023-03-13T10:21:48.283Z,42.32
2023-03-13T10:24:23.726Z,42.23
2023-03-13T10:26:51.950Z,42.97
2023-03-13T10:29:21.211Z,43.24
2023-03-13T10:31:59.408Z,43.22
2023-03-13T10:34:28.615Z,42.72
2023-03-13T10:36:58.440Z,43.11
2023-03-13T10:39:28.923Z,42.70
2023-03-13T10:42:10.282Z,43.09
2023-03-13T10:44:39.176Z,42.88
2023-03-13T10:47:09.729Z,43.26
2023-03-13T10:49:37.939Z,43.53
2023-03-13T10:52:08.092Z,43.24
2023-03-13T10:54:38.053Z,43.92
2023-03-13T10:57:25.726Z,43.96
2023-03-13T10:59:53.749Z,43.82
2023-03-13T11:02:29.198Z,43.84
2023-03-13T11:04:57.453Z,44.03
2023-03-13T11:07:29.397Z,44.19
2023-03-13T11:10:19.350Z,44.20
2023-03-13T11:12:49.186Z,44.18
2023-03-13T11:15:26.257Z,44.14
2023-03-13T11:18:05.553Z,44.17
2023-03-13T11:20:35.256Z,44.24
2023-03-13T11:23:11.581Z,43.92
2023-03-13T11:25:40.458Z,44.11
2023-03-13T11:28:19.187Z,44.22
2023-03-13T11:31:14.695Z,43.66
2023-03-13T11:33:45.735Z,43.72
2023-03-13T11:36:25.827Z,43.61
2023-03-13T11:39:13.089Z,43.51
2023-03-13T11:42:01.286Z,43.83
2023-03-13T11:44:44.743Z,44.19
2023-03-13T11:47:16.172Z,44.07
2023-03-13T11:49:52.386Z,43.82
2023-03-13T11:52:21.055Z,42.80
2023-03-13T11:54:49.144Z,42.65
2023-03-13T11:57:19.234Z,41.69
2023-03-13T11:59:57.520Z,41.91
2023-03-13T12:02:25.847Z,42.22
2023-03-13T12:05:01.553Z,42.05
2023-03-13T12:07:32.466Z,42.67
2023-03-13T12:10:01.824Z,42.90
2023-03-13T12:12:36.167Z,42.64
2023-03-13T12:15:06.949Z,41.19
2023-03-13T12:17:40.074Z,41.84
2023-03-13T12:20:11.989Z,41.73
2023-03-13T12:22:46.346Z,42.17
2023-03-13T12:25:18.475Z,42.10
2023-03-13T12:27:47.817Z,42.18
2023-03-13T12:30:18.644Z,42.55
2023-03-13T12:32:54.597Z,42.35
2023-03-13T12:35:26.174Z,42.04
2023-03-13T12:37:54.584Z,41.85
2023-03-13T12:40:31.531Z,41.74
2023-03-13T12:43:19.506Z,41.84
2023-03-13T12:45:57.099Z,41.77
2023-03-13T12:48:31.638Z,42.25
2023-03-13T12:51:03.250Z,42.46
2023-03-13T12:53:35.553Z,42.52
2023-03-13T12:56:03.623Z,42.48
2023-03-13T12:58:38.260Z,41.87
2023-03-13T13:01:07.230Z,41.94
2023-03-13T13:03:39.294Z,41.83
2023-03-13T13:06:09.422Z,42.16
2023-03-13T13:08:44.148Z,41.88
2023-03-13T13:11:30.862Z,41.10
2023-03-13T13:14:02.876Z,41.25
2023-03-13T13:16:34.051Z,41.45
2023-03-13T13:19:21.822Z,41.30
2023-03-13T13:22:18.024Z,40.71
2023-03-13T13:24:53.507Z,41.17
2023-03-13T13:27:30.178Z,41.80
2023-03-13T13:29:59.667Z,42.03
2023-03-13T13:32:38.471Z,41.95
2023-03-13T13:35:19.074Z,41.35
2023-03-13T13:37:49.505Z,41.58
2023-03-13T13:40:18.384Z,41.59
2023-03-13T13:42:47.141Z,41.49
2023-03-13T13:45:15.782Z,41.71
2023-03-13T13:47:44.987Z,42.11
2023-03-13T13:50:18.189Z,41.93
2023-03-13T13:52:50.452Z,42.21
2023-03-13T13:55:30.793Z,42.18
2023-03-13T13:58:01.040Z,42.29
2023-03-13T14:00:46.291Z,42.41
2023-03-13T14:03:24.692Z,42.65
2023-03-13T14:06:01.784Z,42.60
2023-03-13T14:08:31.016Z,42.72
2023-03-13T14:11:08.202Z,42.70
2023-03-13T14:13:49.104Z,42.67
2023-03-13T14:16:28.778Z,42.78
2023-03-13T14:19:00.515Z,42.70
2023-03-13T14:21:31.616Z,42.80
2023-03-13T14:24:24.354Z,42.95
2023-03-13T14:26:53.018Z,42.80
2023-03-13T14:29:27.675Z,42.68
2023-03-13T14:31:58.119Z,42.99
2023-03-13T14:34:32.751Z,43.11
2023-03-13T14:37:17.782Z,43.12
2023-03-13T14:39:50.579Z,43.03
2023-03-13T14:42:19.318Z,43.05
2023-03-13T14:44:49.357Z,43.26
2023-03-13T14:47:18.251Z,43.56
2023-03-13T14:49:46.798Z,43.45
2023-03-13T14:52:23.865Z,43.55
2023-03-13T14:54:54.086Z,43.67
2023-03-13T14:57:26.016Z,43.81
2023-03-13T14:59:55.829Z,43.73
2023-03-13T15:02:24.558Z,43.83
2023-03-13T15:04:56.467Z,44.00
2023-03-13T15:07:25.178Z,43.88
2023-03-13T15:09:53.658Z,43.98
2023-03-13T15:12:22.718Z,44.14
2023-03-13T15:14:51.505Z,44.38
2023-03-13T15:17:27.021Z,44.50
2023-03-13T15:19:56.208Z,44.51
2023-03-13T15:22:35.311Z,44.69
2023-03-13T15:25:07.361Z,44.71
2023-03-13T15:27:36.330Z,44.71
2023-03-13T15:30:19.653Z,45.00
2023-03-13T15:32:49.999Z,45.11
2023-03-13T15:35:18.465Z,45.01
2023-03-13T15:37:46.685Z,44.94
2023-03-13T15:40:15.517Z,44.93
2023-03-13T15:42:48.868Z,45.08
2023-03-13T15:45:17.178Z,45.16
2023-03-13T15:47:45.363Z,45.12
2023-03-13T15:50:14.415Z,45.23
2023-03-13T15:52:42.507Z,45.19
2023-03-13T15:55:16.502Z,45.10
2023-03-13T15:57:47.389Z,45.05
2023-03-13T16:00:26.557Z,45.04
2023-03-13T16:02:55.518Z,45.11
2023-03-13T16:05:23.602Z,45.17
2023-03-13T16:07:55.673Z,45.35
2023-03-13T16:10:27.942Z,45.62
2023-03-13T16:13:00.104Z,45.40
2023-03-13T16:15:31.148Z,45.49
2023-03-13T16:17:59.553Z,45.61
2023-03-13T16:20:30.631Z,45.59
2023-03-13T16:22:58.801Z,45.66
2023-03-13T16:25:26.774Z,45.73
2023-03-13T16:27:56.438Z,45.85
2023-03-13T16:30:31.767Z,46.02
2023-03-13T16:33:04.127Z,45.94
2023-03-13T16:35:33.076Z,46.02
2023-03-13T16:38:02.529Z,46.21
2023-03-13T16:40:33.468Z,46.40
2023-03-13T16:43:01.526Z,46.45
2023-03-13T16:45:30.887Z,46.68
2023-03-13T16:48:00.112Z,47.12
2023-03-13T16:50:33.633Z,47.24
2023-03-13T16:53:02.443Z,47.36
2023-03-13T16:55:36.466Z,47.51
2023-03-13T16:58:10.993Z,47.72
2023-03-13T17:00:40.878Z,47.72
2023-03-13T17:03:21.388Z,47.80
2023-03-13T17:05:49.810Z,47.81
2023-03-13T17:08:19.691Z,48.20
2023-03-13T17:10:48.891Z,48.07
2023-03-13T17:13:23.540Z,48.03
2023-03-13T17:15:53.821Z,48.26
2023-03-13T17:18:25.002Z,48.31
2023-03-13T17:20:53.145Z,48.34
2023-03-13T17:23:24.418Z,48.51
2023-03-13T17:25:55.305Z,48.39
2023-03-13T17:28:23.950Z,48.24
2023-03-13T17:30:51.974Z,48.28
2023-03-13T17:33:20.290Z,48.43
2023-03-13T17:35:48.783Z,48.44
2023-03-13T17:38:17.174Z,48.55
2023-03-13T17:40:45.312Z,48.82
2023-03-13T17:43:14.675Z,48.81
2023-03-13T17:45:42.602Z,49.04
2023-03-13T17:48:12.146Z,48.97
2023-03-13T17:50:40.360Z,48.80
2023-03-13T17:53:09.624Z,49.12
2023-03-13T17:55:37.737Z,49.10
2023-03-13T17:58:05.885Z,48.98
2023-03-13T18:00:35.206Z,49.15
2023-03-13T18:03:03.577Z,49.11
2023-03-13T18:05:31.846Z,49.29
2023-03-13T18:08:00.209Z,49.33
2023-03-13T18:10:30.262Z,49.46
2023-03-13T18:12:58.617Z,49.61
2023-03-13T18:15:27.135Z,49.72
2023-03-13T18:18:03.022Z,49.81
2023-03-13T18:20:31.866Z,49.85
2023-03-13T18:23:00.916Z,49.93
2023-03-13T18:25:32.254Z,49.92
2023-03-13T18:28:01.641Z,49.92
2023-03-13T18:30:33.752Z,49.93
2023-03-13T18:33:01.971Z,50.02
2023-03-13T18:35:32.391Z,49.75
2023-03-13T18:38:08.552Z,49.77
2023-03-13T18:40:36.626Z,49.84
2023-03-13T18:43:07.815Z,49.66
2023-03-13T18:45:38.691Z,49.78
2023-03-13T18:48:09.607Z,49.93
2023-03-13T18:50:37.763Z,50.09
2023-03-13T18:53:05.866Z,50.25
2023-03-13T18:55:34.317Z,50.54
2023-03-13T18:58:02.323Z,50.68
2023-03-13T19:00:30.960Z,50.83
2023-03-13T19:02:59.712Z,50.95
2023-03-13T19:05:29.858Z,50.95
2023-03-13T19:08:03.380Z,50.91
2023-03-13T19:10:32.820Z,50.78
2023-03-13T19:13:06.160Z,50.68
2023-03-13T19:15:36.211Z,50.86
2023-03-13T19:18:04.282Z,50.83
2023-03-13T19:20:33.049Z,50.79
2023-03-13T19:23:01.533Z,51.00
2023-03-13T19:25:30.102Z,50.82
2023-03-13T19:28:00.384Z,50.88
2023-03-13T19:30:28.420Z,51.00
2023-03-13T19:32:57.601Z,51.03
2023-03-13T19:35:26.384Z,50.99
2023-03-13T19:37:54.325Z,50.99
2023-03-13T19:40:23.545Z,51.18
2023-03-13T19:42:51.451Z,51.22
2023-03-13T19:45:25.573Z,51.21
2023-03-13T19:47:54.213Z,51.37
2023-03-13T19:50:27.885Z,51.31
2023-03-13T19:53:04.763Z,51.51
2023-03-13T19:55:56.721Z,51.49
2023-03-13T19:58:25.127Z,51.50
2023-03-13T20:00:58.849Z,51.82
2023-03-13T20:03:29.448Z,51.80
2023-03-13T20:06:00.912Z,51.83
2023-03-13T20:08:32.947Z,52.00
2023-03-13T20:11:08.511Z,51.91
2023-03-13T20:16:38.853Z,52.05
2023-03-13T20:19:12.753Z,51.84
2023-03-13T20:21:53.349Z,51.87
2023-03-13T20:24:24.899Z,51.96
2023-03-13T20:27:02.056Z,51.99
2023-03-13T20:29:32.143Z,52.08
2023-03-13T20:32:04.805Z,52.07
2023-03-13T20:34:36.590Z,52.15
2023-03-13T20:37:07.268Z,52.11
2023-03-13T20:39:37.513Z,52.10
2023-03-13T20:42:07.625Z,52.27
2023-03-13T20:44:35.794Z,52.17
2023-03-13T20:47:03.992Z,52.10
2023-03-13T20:49:32.366Z,52.12
2023-03-13T20:52:00.667Z,52.22
2023-03-13T20:54:29.120Z,52.25
2023-03-13T20:57:02.479Z,52.38
2023-03-13T20:59:32.048Z,52.37
2023-03-13T21:02:00.449Z,52.56
2023-03-13T21:04:28.654Z,52.52
2023-03-13T21:07:04.679Z,52.52
2023-03-13T21:09:36.659Z,52.54
2023-03-13T21:12:05.364Z,52.55
2023-03-13T21:14:35.175Z,52.66
2023-03-13T21:17:05.943Z,52.78
2023-03-13T21:19:37.352Z,52.70
2023-03-13T21:22:05.535Z,52.87
2023-03-13T21:24:37.273Z,52.87
2023-03-13T21:27:05.582Z,52.93
2023-03-13T21:29:37.550Z,53.02
2023-03-13T21:32:06.747Z,53.02
2023-03-13T21:34:34.676Z,53.01
2023-03-13T21:37:02.654Z,53.12
2023-03-13T21:39:31.603Z,53.17
2023-03-13T21:42:00.125Z,53.05
2023-03-13T21:44:28.333Z,53.07
2023-03-13T21:46:56.460Z,53.08
2023-03-13T21:49:24.994Z,53.13
2023-03-13T21:51:52.998Z,53.27
2023-03-13T21:54:23.566Z,53.30
2023-03-13T21:56:52.511Z,53.29
2023-03-13T21:59:21.967Z,53.28
2023-03-13T22:01:50.246Z,53.22
2023-03-13T22:04:18.120Z,53.25
2023-03-13T22:06:47.825Z,53.21
2023-03-13T22:09:16.240Z,53.40
2023-03-13T22:11:47.356Z,53.29
2023-03-13T22:14:16.978Z,53.38
2023-03-13T22:16:44.936Z,53.55
2023-03-13T22:19:17.458Z,53.48
2023-03-13T22:21:47.260Z,53.57
2023-03-13T22:24:18.378Z,53.73
2023-03-13T22:26:47.179Z,53.89
2023-03-13T22:29:15.485Z,53.87
2023-03-13T22:31:51.262Z,53.91
2023-03-13T22:34:19.736Z,53.90
2023-03-13T22:36:47.956Z,53.86
2023-03-13T22:39:17.326Z,53.89
2023-03-13T22:41:45.557Z,54.03
2023-03-13T22:44:14.016Z,54.06
2023-03-13T22:46:42.376Z,53.90
2023-03-13T22:49:15.274Z,53.93
2023-03-13T22:51:44.130Z,53.87
2023-03-13T22:54:12.896Z,53.98
2023-03-13T22:56:41.485Z,53.94
2023-03-13T22:59:09.638Z,54.07
2023-03-13T23:01:38.849Z,54.13
2023-03-13T23:04:07.036Z,54.22
2023-03-13T23:06:35.176Z,54.34
2023-03-13T23:09:03.626Z,54.41
2023-03-13T23:11:32.426Z,54.55
2023-03-13T23:14:00.799Z,54.59
2023-03-13T23:16:29.123Z,54.53
2023-03-13T23:18:57.056Z,54.78
2023-03-13T23:21:27.696Z,54.74
2023-03-13T23:23:55.869Z,54.83
2023-03-13T23:26:23.883Z,54.88
2023-03-13T23:28:51.885Z,54.97
2023-03-13T23:31:21.096Z,55.08
2023-03-13T23:33:53.143Z,55.21
2023-03-13T23:36:21.237Z,55.33
2023-03-13T23:38:49.536Z,55.34
2023-03-13T23:41:17.537Z,55.34
2023-03-13T23:43:45.424Z,55.37
2023-03-13T23:46:20.192Z,55.47
2023-03-13T23:48:51.949Z,55.62
2023-03-13T23:51:24.570Z,55.51
2023-03-13T23:53:52.809Z,55.54
2023-03-13T23:56:20.872Z,55.64
2023-03-13T23:58:55.298Z,55.61
